Time,TemperatureF,DewpointF,PressureIn,WindDirection,WindDirectionDegrees,WindSpeedMPH,WindSpeedGustMPH,Humidity,HourlyPrecipIn,Conditions,Clouds,dailyrainin,SoftwareType,DateUTC
2013-02-25 00:04:00,38.8,33.8,30.19,NNW,336,1.0,1.0,82,0.00,,,0.00,meteohub,2013-02-25 08:04:00,
2013-02-25 00:09:00,38.7,33.6,30.19,NNW,327,0.0,1.0,82,0.00,,,0.00,meteohub,2013-02-25 08:09:00,
2013-02-25 00:14:00,38.5,33.4,30.19,NNW,327,0.0,1.0,82,0.00,,,0.00,meteohub,2013-02-25 08:14:00,
2013-02-25 00:19:00,38.5,33.8,30.19,NNE,26,0.0,2.0,83,0.00,,,0.00,meteohub,2013-02-25 08:19:00,
2013-02-25 00:24:00,38.5,33.4,30.19,NNE,26,0.0,2.0,82,0.00,,,0.00,meteohub,2013-02-25 08:24:00,
2013-02-25 00:29:00,38.5,33.4,30.19,West,265,0.0,2.0,82,0.00,,,0.00,meteohub,2013-02-25 08:29:00,
2013-02-25 00:34:00,38.1,33.4,30.19,West,272,1.0,1.0,83,0.00,,,0.00,meteohub,2013-02-25 08:34:00,
2013-02-25 00:39:00,37.9,33.3,30.19,West,271,0.0,1.0,83,0.00,,,0.00,meteohub,2013-02-25 08:39:00,
2013-02-25 00:44:00,37.9,33.3,30.19,West,271,0.0,1.0,83,0.00,,,0.00,meteohub,2013-02-25 08:44:00,
2013-02-25 00:49:00,37.8,33.1,30.19,West,271,0.0,1.0,83,0.00,,,0.00,meteohub,2013-02-25 08:49:00,
2013-02-25 00:54:00,37.6,33.3,30.20,West,271,0.0,1.0,84,0.00,,,0.00,meteohub,2013-02-25 08:54:00,
2013-02-25 00:59:00,37.4,33.1,30.20,West,271,0.0,1.0,84,0.00,,,0.00,meteohub,2013-02-25 08:59:00,
2013-02-25 01:04:00,37.6,33.3,30.20,West,271,0.0,1.0,84,0.00,,,0.00,meteohub,2013-02-25 09:04:00,
2013-02-25 01:09:00,37.8,33.4,30.20,West,270,0.0,1.0,84,0.00,,,0.00,meteohub,2013-02-25 09:09:00,
2013-02-25 01:14:00,37.6,33.3,30.20,West,271,1.0,1.0,84,0.00,,,0.00,meteohub,2013-02-25 09:14:00,
2013-02-25 01:19:00,37.2,32.9,30.20,West,271,1.0,1.0,84,0.00,,,0.00,meteohub,2013-02-25 09:19:00,
2013-02-25 01:24:00,37.0,32.7,30.20,NNW,336,0.0,1.0,84,0.00,,,0.00,meteohub,2013-02-25 09:24:00,
2013-02-25 01:29:00,37.0,32.9,30.20,WSW,252,1.0,2.0,85,0.00,,,0.00,meteohub,2013-02-25 09:29:00,
2013-02-25 01:35:00,36.9,32.7,30.20,WSW,256,0.0,2.0,85,0.00,,,0.00,meteohub,2013-02-25 09:35:00,
2013-02-25 01:40:00,36.9,32.7,30.21,WSW,256,0.0,2.0,85,0.00,,,0.00,meteohub,2013-02-25 09:40:00,
2013-02-25 01:45:00,36.9,32.7,30.21,WSW,256,0.0,2.0,85,0.00,,,0.00,meteohub,2013-02-25 09:45:00,
2013-02-25 01:50:00,36.9,32.7,30.20,WSW,256,0.0,1.0,85,0.00,,,0.00,meteohub,2013-02-25 09:50:00,
2013-02-25 01:55:00,36.7,32.5,30.20,WSW,256,0.0,1.0,85,0.00,,,0.00,meteohub,2013-02-25 09:55:00,
2013-02-25 02:00:00,36.5,32.4,30.20,WSW,256,0.0,1.0,85,0.00,,,0.00,meteohub,2013-02-25 10:00:00,
2013-02-25 02:05:00,36.5,32.7,30.20,WSW,256,1.0,0.0,86,0.00,,,0.00,meteohub,2013-02-25 10:05:00,
2013-02-25 02:10:00,36.1,32.0,30.20,WSW,256,0.0,1.0,85,0.00,,,0.00,meteohub,2013-02-25 10:10:00,
2013-02-25 02:15:00,36.0,31.8,30.20,WSW,256,0.0,1.0,85,0.00,,,0.00,meteohub,2013-02-25 10:15:00,
2013-02-25 02:20:00,35.8,32.0,30.21,WSW,256,0.0,1.0,86,0.00,,,0.00,meteohub,2013-02-25 10:20:00,
2013-02-25 02:25:00,35.8,32.0,30.21,WSW,256,1.0,1.0,86,0.00,,,0.00,meteohub,2013-02-25 10:25:00,
2013-02-25 02:30:00,36.0,32.5,30.21,WSW,256,0.0,1.0,87,0.00,,,0.00,meteohub,2013-02-25 10:30:00,
2013-02-25 02:35:00,35.8,32.0,30.21,WSW,256,0.0,1.0,86,0.00,,,0.00,meteohub,2013-02-25 10:35:00,
2013-02-25 02:40:00,35.8,32.4,30.21,WSW,256,0.0,1.0,87,0.00,,,0.00,meteohub,2013-02-25 10:40:00,
2013-02-25 02:45:00,35.6,32.2,30.21,WSW,256,0.0,1.0,87,0.00,,,0.00,meteohub,2013-02-25 10:45:00,
2013-02-25 02:50:00,35.8,32.4,30.21,SSE,148,0.0,1.0,87,0.00,,,0.00,meteohub,2013-02-25 10:50:00,
2013-02-25 02:55:00,35.8,32.4,30.21,SSE,148,0.0,1.0,87,0.00,,,0.00,meteohub,2013-02-25 10:55:00,
2013-02-25 03:00:00,35.8,32.4,30.21,SSE,148,0.0,0.0,87,0.00,,,0.00,meteohub,2013-02-25 11:00:00,
2013-02-25 03:05:00,35.6,32.2,30.20,SSE,148,0.0,0.0,87,0.00,,,0.00,meteohub,2013-02-25 11:05:00,
2013-02-25 03:10:00,35.4,32.0,30.20,SSE,148,0.0,0.0,87,0.00,,,0.00,meteohub,2013-02-25 11:10:00,
2013-02-25 03:15:00,35.2,31.8,30.20,SSE,148,0.0,0.0,87,0.00,,,0.00,meteohub,2013-02-25 11:15:00,
2013-02-25 03:20:00,35.2,32.0,30.21,WSW,250,2.0,0.0,88,0.00,,,0.00,meteohub,2013-02-25 11:20:00,
2013-02-25 03:25:00,35.4,32.2,30.21,West,260,0.0,2.0,88,0.00,,,0.00,meteohub,2013-02-25 11:25:00,
2013-02-25 03:30:00,35.4,32.0,30.21,West,260,1.0,2.0,87,0.00,,,0.00,meteohub,2013-02-25 11:30:00,
2013-02-25 03:35:00,35.4,32.2,30.20,ENE,64,0.0,2.0,88,0.00,,,0.00,meteohub,2013-02-25 11:35:00,
2013-02-25 03:40:00,35.4,32.2,30.20,ENE,65,0.0,2.0,88,0.00,,,0.00,meteohub,2013-02-25 11:40:00,
2013-02-25 03:45:00,35.2,31.8,30.20,ENE,65,0.0,2.0,87,0.00,,,0.00,meteohub,2013-02-25 11:45:00,
2013-02-25 03:50:00,35.2,32.0,30.19,WNW,303,0.0,2.0,88,0.00,,,0.00,meteohub,2013-02-25 11:50:00,
2013-02-25 03:55:00,35.2,32.0,30.19,NW,304,1.0,2.0,88,0.00,,,0.00,meteohub,2013-02-25 11:55:00,
2013-02-25 04:00:00,35.2,32.0,30.19,SW,234,0.0,2.0,88,0.00,,,0.00,meteohub,2013-02-25 12:00:00,
2013-02-25 04:06:00,35.2,32.0,30.18,SW,234,1.0,1.0,88,0.00,,,0.00,meteohub,2013-02-25 12:06:00,
2013-02-25 04:11:00,35.2,32.0,30.18,West,261,0.0,1.0,88,0.00,,,0.00,meteohub,2013-02-25 12:11:00,
2013-02-25 04:16:00,35.1,31.8,30.18,WNW,296,2.0,2.0,88,0.00,,,0.00,meteohub,2013-02-25 12:16:00,
2013-02-25 04:21:00,35.1,31.8,30.19,NW,308,0.0,2.0,88,0.00,,,0.00,meteohub,2013-02-25 12:21:00,
2013-02-25 04:26:00,35.2,32.0,30.19,NE,36,0.0,3.0,88,0.00,,,0.00,meteohub,2013-02-25 12:26:00,
2013-02-25 04:31:00,35.4,32.2,30.19,NE,36,0.0,2.0,88,0.00,,,0.00,meteohub,2013-02-25 12:31:00,
2013-02-25 04:36:00,35.8,32.5,30.20,NE,36,0.0,2.0,88,0.00,,,0.00,meteohub,2013-02-25 12:36:00,
2013-02-25 04:41:00,35.8,32.5,30.20,NE,36,0.0,2.0,88,0.00,,,0.00,meteohub,2013-02-25 12:41:00,
2013-02-25 04:46:00,35.6,32.4,30.20,South,191,1.0,1.0,88,0.00,,,0.00,meteohub,2013-02-25 12:46:00,
2013-02-25 04:51:00,35.4,32.2,30.20,SSW,192,0.0,1.0,88,0.00,,,0.00,meteohub,2013-02-25 12:51:00,
2013-02-25 04:56:00,35.4,32.2,30.20,South,172,1.0,1.0,88,0.00,,,0.00,meteohub,2013-02-25 12:56:00,
2013-02-25 05:02:00,36.0,33.1,30.20,NNE,29,2.0,2.0,89,0.00,,,0.00,meteohub,2013-02-25 13:02:00,
2013-02-25 05:07:00,36.1,32.9,30.20,SW,215,1.0,4.0,88,0.00,,,0.00,meteohub,2013-02-25 13:07:00,
2013-02-25 05:12:00,36.1,32.7,30.20,SE,145,1.0,4.0,87,0.00,,,0.00,meteohub,2013-02-25 13:12:00,
2013-02-25 05:17:00,36.1,32.9,30.20,WSW,258,1.0,4.0,88,0.00,,,0.00,meteohub,2013-02-25 13:17:00,
2013-02-25 05:22:00,36.0,32.5,30.21,WNW,290,1.0,3.0,87,0.00,,,0.00,meteohub,2013-02-25 13:22:00,
2013-02-25 05:27:00,35.8,32.5,30.21,NW,319,1.0,3.0,88,0.00,,,0.00,meteohub,2013-02-25 13:27:00,
2013-02-25 05:32:00,35.8,32.5,30.21,East,89,0.0,2.0,88,0.00,,,0.00,meteohub,2013-02-25 13:32:00,
2013-02-25 05:38:00,35.6,32.4,30.22,SW,214,1.0,2.0,88,0.00,,,0.00,meteohub,2013-02-25 13:38:00,
2013-02-25 05:43:00,35.4,32.2,30.22,SW,214,0.0,2.0,88,0.00,,,0.00,meteohub,2013-02-25 13:43:00,
2013-02-25 05:48:00,35.2,32.4,30.22,SW,214,1.0,1.0,89,0.00,,,0.00,meteohub,2013-02-25 13:48:00,
2013-02-25 05:53:00,35.1,31.8,30.22,SW,214,0.0,1.0,88,0.00,,,0.00,meteohub,2013-02-25 13:53:00,
2013-02-25 05:58:00,34.9,32.0,30.22,SW,214,0.0,2.0,89,0.00,,,0.00,meteohub,2013-02-25 13:58:00,
2013-02-25 06:03:00,35.1,32.2,30.22,SSW,210,0.0,1.0,89,0.00,,,0.00,meteohub,2013-02-25 14:03:00,
2013-02-25 06:08:00,34.9,32.0,30.23,SSW,210,0.0,1.0,89,0.00,,,0.00,meteohub,2013-02-25 14:08:00,
2013-02-25 06:14:00,34.9,32.0,30.23,SSW,210,0.0,1.0,89,0.00,,,0.00,meteohub,2013-02-25 14:14:00,
2013-02-25 06:19:00,34.7,31.8,30.23,SSW,210,0.0,1.0,89,0.00,,,0.00,meteohub,2013-02-25 14:19:00,
2013-02-25 06:24:00,34.3,31.5,30.23,SSW,210,0.0,1.0,89,0.00,,,0.00,meteohub,2013-02-25 14:24:00,
2013-02-25 06:30:00,34.3,31.6,30.23,SSW,210,0.0,0.0,90,0.00,,,0.00,meteohub,2013-02-25 14:30:00,
2013-02-25 06:35:00,34.2,31.5,30.23,SSW,210,0.0,1.0,90,0.00,,,0.00,meteohub,2013-02-25 14:35:00,
2013-02-25 06:40:00,34.2,31.5,30.23,SSW,210,0.0,1.0,90,0.00,,,0.00,meteohub,2013-02-25 14:40:00,
2013-02-25 06:45:00,34.0,31.6,30.23,SSW,210,0.0,0.0,91,0.00,,,0.00,meteohub,2013-02-25 14:45:00,
2013-02-25 06:50:00,34.0,31.6,30.23,SSW,210,0.0,0.0,91,0.00,,,0.00,meteohub,2013-02-25 14:50:00,
2013-02-25 06:55:00,34.0,31.6,30.23,SSW,209,0.0,1.0,91,0.00,,,0.00,meteohub,2013-02-25 14:55:00,
2013-02-25 07:00:00,34.2,31.8,30.23,SSW,210,0.0,1.0,91,0.00,,,0.00,meteohub,2013-02-25 15:00:00,
2013-02-25 07:05:00,34.0,31.6,30.23,SSW,209,0.0,1.0,91,0.00,,,0.00,meteohub,2013-02-25 15:05:00,
2013-02-25 07:10:00,34.0,31.6,30.23,SSW,210,0.0,1.0,91,0.00,,,0.00,meteohub,2013-02-25 15:10:00,
2013-02-25 07:15:00,34.3,32.2,30.23,SSW,210,0.0,1.0,92,0.00,,,0.00,meteohub,2013-02-25 15:15:00,
2013-02-25 07:20:00,34.5,32.4,30.23,SSW,209,0.0,1.0,92,0.00,,,0.00,meteohub,2013-02-25 15:20:00,
2013-02-25 07:25:00,34.9,32.5,30.23,SSW,210,0.0,1.0,91,0.00,,,0.00,meteohub,2013-02-25 15:25:00,
2013-02-25 07:30:00,35.1,32.9,30.23,SSW,210,0.0,1.0,92,0.00,,,0.00,meteohub,2013-02-25 15:30:00,
2013-02-25 07:35:00,35.4,33.1,30.22,SSW,210,0.0,0.0,91,0.00,,,0.00,meteohub,2013-02-25 15:35:00,
2013-02-25 07:40:00,36.0,33.6,30.22,SSW,210,0.0,1.0,91,0.00,,,0.00,meteohub,2013-02-25 15:40:00,
2013-02-25 07:45:00,36.7,34.0,30.22,SSW,209,0.0,1.0,90,0.00,,,0.00,meteohub,2013-02-25 15:45:00,
2013-02-25 07:50:00,37.2,34.3,30.22,SSW,211,1.0,1.0,89,0.00,,,0.00,meteohub,2013-02-25 15:50:00,
2013-02-25 07:55:00,37.8,34.5,30.22,SSW,210,0.0,1.0,88,0.00,,,0.00,meteohub,2013-02-25 15:55:00,
2013-02-25 08:00:00,38.1,34.5,30.22,SSW,210,0.0,1.0,87,0.00,,,0.00,meteohub,2013-02-25 16:00:00,
2013-02-25 08:05:00,39.0,35.2,30.22,SSW,210,0.0,1.0,86,0.00,,,0.00,meteohub,2013-02-25 16:05:00,
2013-02-25 08:11:00,40.3,36.5,30.22,SSW,211,0.0,1.0,86,0.00,,,0.00,meteohub,2013-02-25 16:11:00,
2013-02-25 08:16:00,42.1,37.2,30.22,SSW,211,1.0,1.0,83,0.00,,,0.00,meteohub,2013-02-25 16:16:00,
2013-02-25 08:21:00,42.4,36.3,30.22,SSW,210,1.0,1.0,79,0.00,,,0.00,meteohub,2013-02-25 16:21:00,
2013-02-25 08:26:00,43.0,36.9,30.22,SSW,210,1.0,1.0,79,0.00,,,0.00,meteohub,2013-02-25 16:26:00,
2013-02-25 08:31:00,43.5,37.0,30.22,SW,221,0.0,1.0,78,0.00,,,0.00,meteohub,2013-02-25 16:31:00,
2013-02-25 08:36:00,44.4,37.6,30.22,West,263,1.0,2.0,77,0.00,,,0.00,meteohub,2013-02-25 16:36:00,
2013-02-25 08:41:00,45.5,37.4,30.22,WSW,256,2.0,2.0,73,0.00,,,0.00,meteohub,2013-02-25 16:41:00,
2013-02-25 08:46:00,46.2,37.8,30.22,WSW,246,1.0,3.0,72,0.00,,,0.00,meteohub,2013-02-25 16:46:00,
2013-02-25 08:51:00,46.9,37.2,30.22,West,260,0.0,4.0,69,0.00,,,0.00,meteohub,2013-02-25 16:51:00,
2013-02-25 08:56:00,47.7,37.9,30.22,NW,322,1.0,4.0,69,0.00,,,0.00,meteohub,2013-02-25 16:56:00,
2013-02-25 09:01:00,48.0,37.6,30.22,West,267,0.0,4.0,67,0.00,,,0.00,meteohub,2013-02-25 17:01:00,
2013-02-25 09:06:00,48.7,37.9,30.21,West,273,0.0,3.0,66,0.00,,,0.00,meteohub,2013-02-25 17:06:00,
2013-02-25 09:11:00,49.1,38.3,30.21,WSW,254,1.0,3.0,66,0.00,,,0.00,meteohub,2013-02-25 17:11:00,
2013-02-25 09:16:00,49.8,38.1,30.21,NW,315,2.0,3.0,64,0.00,,,0.00,meteohub,2013-02-25 17:16:00,
2013-02-25 09:21:00,50.0,37.9,30.21,WNW,284,0.0,3.0,63,0.00,,,0.00,meteohub,2013-02-25 17:21:00,
2013-02-25 09:26:00,50.4,38.3,30.21,NNW,336,3.0,5.0,63,0.00,,,0.00,meteohub,2013-02-25 17:26:00,
2013-02-25 09:31:00,50.7,38.7,30.21,North,351,2.0,5.0,63,0.00,,,0.00,meteohub,2013-02-25 17:31:00,
2013-02-25 09:36:00,51.1,38.5,30.21,NW,313,2.0,4.0,62,0.00,,,0.00,meteohub,2013-02-25 17:36:00,
2013-02-25 09:41:00,51.4,38.8,30.21,West,281,2.0,7.0,62,0.00,,,0.00,meteohub,2013-02-25 17:41:00,
2013-02-25 09:47:00,52.2,38.7,30.21,NE,53,2.0,7.0,60,0.00,,,0.00,meteohub,2013-02-25 17:47:00,
2013-02-25 09:52:00,52.2,38.7,30.20,NE,35,4.0,7.0,60,0.00,,,0.00,meteohub,2013-02-25 17:52:00,
2013-02-25 09:57:00,52.3,38.8,30.20,NNW,333,2.0,6.0,60,0.00,,,0.00,meteohub,2013-02-25 17:57:00,
2013-02-25 10:02:00,52.5,39.0,30.20,WSW,246,1.0,6.0,60,0.00,,,0.00,meteohub,2013-02-25 18:02:00,
2013-02-25 10:07:00,53.1,39.6,30.20,NNE,14,1.0,6.0,60,0.00,,,0.00,meteohub,2013-02-25 18:07:00,
2013-02-25 10:12:00,53.6,39.6,30.20,West,264,3.0,4.0,59,0.00,,,0.00,meteohub,2013-02-25 18:12:00,
2013-02-25 10:17:00,54.1,40.1,30.20,NNW,327,3.0,4.0,59,0.00,,,0.00,meteohub,2013-02-25 18:17:00,
2013-02-25 10:22:00,54.5,40.1,30.20,NE,53,3.0,4.0,58,0.00,,,0.00,meteohub,2013-02-25 18:22:00,
2013-02-25 10:27:00,55.0,40.5,30.20,WSW,254,1.0,4.0,58,0.00,,,0.00,meteohub,2013-02-25 18:27:00,
2013-02-25 10:32:00,55.8,40.8,30.20,NW,322,4.0,4.0,57,0.00,,,0.00,meteohub,2013-02-25 18:32:00,
2013-02-25 10:37:00,55.9,40.5,30.20,NNW,330,2.0,9.0,56,0.00,,,0.00,meteohub,2013-02-25 18:37:00,
2013-02-25 10:42:00,56.1,41.2,30.20,West,277,3.0,12.0,57,0.00,,,0.00,meteohub,2013-02-25 18:42:00,
2013-02-25 10:47:00,56.7,41.2,30.20,WSW,253,2.0,8.0,56,0.00,,,0.00,meteohub,2013-02-25 18:47:00,
2013-02-25 10:52:00,56.8,41.4,30.19,NW,310,2.0,7.0,56,0.00,,,0.00,meteohub,2013-02-25 18:52:00,
2013-02-25 10:57:00,57.2,41.7,30.19,NNE,22,6.0,10.0,56,0.00,,,0.00,meteohub,2013-02-25 18:57:00,
2013-02-25 11:02:00,57.7,41.7,30.19,West,281,6.0,10.0,55,0.00,,,0.00,meteohub,2013-02-25 19:02:00,
2013-02-25 11:07:00,57.9,41.4,30.19,WNW,290,7.0,11.0,54,0.00,,,0.00,meteohub,2013-02-25 19:07:00,
2013-02-25 11:12:00,58.5,41.4,30.19,NW,322,5.0,13.0,53,0.00,,,0.00,meteohub,2013-02-25 19:12:00,
2013-02-25 11:17:00,58.8,41.2,30.19,West,259,3.0,13.0,52,0.00,,,0.00,meteohub,2013-02-25 19:17:00,
2013-02-25 11:22:00,59.2,41.5,30.18,West,275,3.0,11.0,52,0.00,,,0.00,meteohub,2013-02-25 19:22:00,
2013-02-25 11:27:00,59.7,41.5,30.18,NW,315,3.0,11.0,51,0.00,,,0.00,meteohub,2013-02-25 19:27:00,
2013-02-25 11:32:00,60.1,41.4,30.18,NNW,336,6.0,10.0,50,0.00,,,0.00,meteohub,2013-02-25 19:32:00,
2013-02-25 11:37:00,60.1,40.8,30.18,SW,233,4.0,10.0,49,0.00,,,0.00,meteohub,2013-02-25 19:37:00,
2013-02-25 11:42:00,60.6,40.8,30.18,West,273,2.0,10.0,48,0.00,,,0.00,meteohub,2013-02-25 19:42:00,
2013-02-25 11:47:00,61.0,41.7,30.18,West,279,4.0,10.0,49,0.00,,,0.00,meteohub,2013-02-25 19:47:00,
2013-02-25 11:52:00,61.2,41.4,30.17,WNW,292,3.0,10.0,48,0.00,,,0.00,meteohub,2013-02-25 19:52:00,
2013-02-25 11:57:00,61.5,41.2,30.17,WSW,256,4.0,9.0,47,0.00,,,0.00,meteohub,2013-02-25 19:57:00,
2013-02-25 12:03:00,62.1,41.0,30.17,WNW,286,6.0,7.0,46,0.00,,,0.00,meteohub,2013-02-25 20:03:00,
2013-02-25 12:08:00,62.1,41.0,30.17,West,280,5.0,9.0,46,0.00,,,0.00,meteohub,2013-02-25 20:08:00,
2013-02-25 12:13:00,61.9,40.3,30.17,WSW,250,4.0,9.0,45,0.00,,,0.00,meteohub,2013-02-25 20:13:00,
2013-02-25 12:18:00,62.4,40.3,30.17,NW,326,3.0,10.0,44,0.00,,,0.00,meteohub,2013-02-25 20:18:00,
2013-02-25 12:23:00,62.4,39.6,30.16,WNW,290,10.0,10.0,43,0.00,,,0.00,meteohub,2013-02-25 20:23:00,
2013-02-25 12:28:00,63.0,40.1,30.16,West,269,3.0,12.0,43,0.00,,,0.00,meteohub,2013-02-25 20:28:00,
2013-02-25 12:33:00,63.3,39.9,30.16,NW,318,4.0,12.0,42,0.00,,,0.00,meteohub,2013-02-25 20:33:00,
2013-02-25 12:38:00,63.1,39.7,30.16,NW,316,4.0,10.0,42,0.00,,,0.00,meteohub,2013-02-25 20:38:00,
2013-02-25 12:43:00,63.3,39.9,30.16,SW,230,3.0,10.0,42,0.00,,,0.00,meteohub,2013-02-25 20:43:00,
2013-02-25 12:48:00,64.2,40.1,30.16,NNW,328,3.0,10.0,41,0.00,,,0.00,meteohub,2013-02-25 20:48:00,
2013-02-25 12:53:00,64.6,40.3,30.15,SSW,202,3.0,9.0,41,0.00,,,0.00,meteohub,2013-02-25 20:53:00,
2013-02-25 12:58:00,64.4,39.6,30.15,WNW,286,5.0,10.0,40,0.00,,,0.00,meteohub,2013-02-25 20:58:00,
2013-02-25 13:03:00,64.0,39.2,30.15,NNW,332,0.0,10.0,40,0.00,,,0.00,meteohub,2013-02-25 21:03:00,
2013-02-25 13:08:00,64.8,39.2,30.14,WSW,249,1.0,8.0,39,0.00,,,0.00,meteohub,2013-02-25 21:08:00,
2013-02-25 13:13:00,65.1,39.6,30.14,WNW,300,6.0,8.0,39,0.00,,,0.00,meteohub,2013-02-25 21:13:00,
2013-02-25 13:18:00,65.3,38.3,30.14,WNW,288,4.0,12.0,37,0.00,,,0.00,meteohub,2013-02-25 21:18:00,
2013-02-25 13:23:00,65.3,37.6,30.14,WSW,251,5.0,12.0,36,0.00,,,0.00,meteohub,2013-02-25 21:23:00,
2013-02-25 13:28:00,65.5,37.8,30.14,WNW,286,5.0,12.0,36,0.00,,,0.00,meteohub,2013-02-25 21:28:00,
2013-02-25 13:33:00,65.8,38.1,30.14,NNE,22,4.0,7.0,36,0.00,,,0.00,meteohub,2013-02-25 21:33:00,
2013-02-25 13:38:00,66.2,38.5,30.14,NNE,22,2.0,7.0,36,0.00,,,0.00,meteohub,2013-02-25 21:38:00,
2013-02-25 13:43:00,66.4,38.7,30.14,NNW,344,2.0,7.0,36,0.00,,,0.00,meteohub,2013-02-25 21:43:00,
2013-02-25 13:48:00,66.9,36.9,30.14,WSW,242,1.0,6.0,33,0.00,,,0.00,meteohub,2013-02-25 21:48:00,
2013-02-25 13:53:00,66.7,37.4,30.13,West,281,3.0,5.0,34,0.00,,,0.00,meteohub,2013-02-25 21:53:00,
2013-02-25 13:59:00,67.1,37.8,30.13,West,280,3.0,5.0,34,0.00,,,0.00,meteohub,2013-02-25 21:59:00,
2013-02-25 14:04:00,67.3,36.5,30.13,NNW,333,2.0,9.0,32,0.00,,,0.00,meteohub,2013-02-25 22:04:00,
2013-02-25 14:09:00,67.3,34.0,30.13,ESE,115,4.0,9.0,29,0.00,,,0.00,meteohub,2013-02-25 22:09:00,
2013-02-25 14:14:00,67.1,33.8,30.13,NW,326,3.0,9.0,29,0.00,,,0.00,meteohub,2013-02-25 22:14:00,
2013-02-25 14:19:00,67.3,33.1,30.13,NNE,22,3.0,9.0,28,0.00,,,0.00,meteohub,2013-02-25 22:19:00,
2013-02-25 14:24:00,67.5,33.3,30.13,East,94,1.0,10.0,28,0.00,,,0.00,meteohub,2013-02-25 22:24:00,
2013-02-25 14:29:00,67.6,34.2,30.13,ENE,63,1.0,10.0,29,0.00,,,0.00,meteohub,2013-02-25 22:29:00,
2013-02-25 14:34:00,68.2,32.0,30.13,WNW,303,0.0,6.0,26,0.00,,,0.00,meteohub,2013-02-25 22:34:00,
2013-02-25 14:39:00,68.7,31.5,30.12,NNW,333,1.0,6.0,25,0.00,,,0.00,meteohub,2013-02-25 22:39:00,
2013-02-25 14:44:00,69.1,30.7,30.12,NW,308,6.0,6.0,24,0.00,,,0.00,meteohub,2013-02-25 22:44:00,
2013-02-25 14:49:00,68.5,30.4,30.12,WSW,253,4.0,10.0,24,0.00,,,0.00,meteohub,2013-02-25 22:49:00,
2013-02-25 14:54:00,68.2,30.0,30.12,WSW,253,3.0,10.0,24,0.00,,,0.00,meteohub,2013-02-25 22:54:00,
2013-02-25 14:59:00,68.4,28.0,30.12,NW,319,3.0,9.0,22,0.00,,,0.00,meteohub,2013-02-25 22:59:00,
2013-02-25 15:04:00,68.4,29.1,30.12,WSW,249,5.0,7.0,23,0.00,,,0.00,meteohub,2013-02-25 23:04:00,
2013-02-25 15:09:00,68.2,28.9,30.12,WSW,256,2.0,9.0,23,0.00,,,0.00,meteohub,2013-02-25 23:09:00,
2013-02-25 15:14:00,68.2,28.9,30.12,NW,309,2.0,9.0,23,0.00,,,0.00,meteohub,2013-02-25 23:14:00,
2013-02-25 15:19:00,67.8,27.5,30.12,WNW,292,7.0,7.0,22,0.00,,,0.00,meteohub,2013-02-25 23:19:00,
2013-02-25 15:24:00,67.8,27.5,30.11,West,281,2.0,10.0,22,0.00,,,0.00,meteohub,2013-02-25 23:24:00,
2013-02-25 15:29:00,68.0,27.7,30.11,WNW,300,2.0,10.0,22,0.00,,,0.00,meteohub,2013-02-25 23:29:00,
2013-02-25 15:34:00,68.5,28.2,30.11,West,271,2.0,10.0,22,0.00,,,0.00,meteohub,2013-02-25 23:34:00,
2013-02-25 15:39:00,68.7,28.4,30.11,NW,322,4.0,9.0,22,0.00,,,0.00,meteohub,2013-02-25 23:39:00,
2013-02-25 15:44:00,68.4,28.0,30.11,WNW,300,4.0,5.0,22,0.00,,,0.00,meteohub,2013-02-25 23:44:00,
2013-02-25 15:49:00,68.2,26.8,30.11,West,261,4.0,6.0,21,0.00,,,0.00,meteohub,2013-02-25 23:49:00,
2013-02-25 15:55:00,68.5,28.2,30.10,West,273,3.0,6.0,22,0.00,,,0.00,meteohub,2013-02-25 23:55:00,
2013-02-25 16:00:00,68.4,28.0,30.10,West,261,5.0,6.0,22,0.00,,,0.00,meteohub,2013-02-26 00:00:00,
2013-02-25 16:05:00,68.5,27.1,30.10,West,268,3.0,7.0,21,0.00,,,0.00,meteohub,2013-02-26 00:05:00,
2013-02-25 16:10:00,68.4,28.0,30.10,WSW,245,6.0,10.0,22,0.00,,,0.00,meteohub,2013-02-26 00:10:00,
2013-02-25 16:15:00,68.5,27.1,30.10,SW,236,3.0,10.0,21,0.00,,,0.00,meteohub,2013-02-26 00:15:00,
2013-02-25 16:20:00,67.6,39.0,30.10,SSW,211,2.0,11.0,35,0.00,,,0.00,meteohub,2013-02-26 00:20:00,
2013-02-25 16:25:00,66.7,40.3,30.10,WSW,240,4.0,11.0,38,0.00,,,0.00,meteohub,2013-02-26 00:25:00,
2013-02-25 16:30:00,65.7,41.9,30.10,SW,230,4.0,11.0,42,0.00,,,0.00,meteohub,2013-02-26 00:30:00,
2013-02-25 16:35:00,64.8,43.0,30.11,SW,227,3.0,11.0,45,0.00,,,0.00,meteohub,2013-02-26 00:35:00,
2013-02-25 16:40:00,64.0,42.8,30.11,SW,214,4.0,11.0,46,0.00,,,0.00,meteohub,2013-02-26 00:40:00,
2013-02-25 16:45:00,63.9,43.2,30.11,SW,218,4.0,10.0,47,0.00,,,0.00,meteohub,2013-02-26 00:45:00,
2013-02-25 16:50:00,63.9,43.2,30.10,SW,217,3.0,10.0,47,0.00,,,0.00,meteohub,2013-02-26 00:50:00,
2013-02-25 16:55:00,64.0,43.3,30.10,SW,214,0.0,6.0,47,0.00,,,0.00,meteohub,2013-02-26 00:55:00,
2013-02-25 17:00:00,63.7,44.2,30.10,West,281,4.0,6.0,49,0.00,,,0.00,meteohub,2013-02-26 01:00:00,
2013-02-25 17:05:00,62.8,43.9,30.10,WSW,240,1.0,5.0,50,0.00,,,0.00,meteohub,2013-02-26 01:05:00,
2013-02-25 17:10:00,62.2,43.3,30.10,West,271,4.0,5.0,50,0.00,,,0.00,meteohub,2013-02-26 01:10:00,
2013-02-25 17:15:00,61.5,43.2,30.10,WSW,250,1.0,5.0,51,0.00,,,0.00,meteohub,2013-02-26 01:15:00,
2013-02-25 17:20:00,61.2,43.9,30.11,NNW,334,1.0,5.0,53,0.00,,,0.00,meteohub,2013-02-26 01:20:00,
2013-02-25 17:25:00,60.8,43.5,30.11,SW,233,0.0,5.0,53,0.00,,,0.00,meteohub,2013-02-26 01:25:00,
2013-02-25 17:30:00,60.6,43.3,30.11,West,279,3.0,4.0,53,0.00,,,0.00,meteohub,2013-02-26 01:30:00,
2013-02-25 17:35:00,60.4,43.2,30.11,West,261,1.0,4.0,53,0.00,,,0.00,meteohub,2013-02-26 01:35:00,
2013-02-25 17:40:00,60.3,43.0,30.11,West,275,0.0,3.0,53,0.00,,,0.00,meteohub,2013-02-26 01:40:00,
2013-02-25 17:45:00,60.1,43.3,30.11,SW,229,0.0,3.0,54,0.00,,,0.00,meteohub,2013-02-26 01:45:00,
2013-02-25 17:50:00,59.4,43.7,30.11,SW,227,1.0,3.0,56,0.00,,,0.00,meteohub,2013-02-26 01:50:00,
2013-02-25 17:55:00,58.6,43.0,30.11,SW,229,0.0,3.0,56,0.00,,,0.00,meteohub,2013-02-26 01:55:00,
2013-02-25 18:00:00,58.3,43.2,30.11,SE,142,0.0,3.0,57,0.00,,,0.00,meteohub,2013-02-26 02:00:00,
2013-02-25 18:05:00,57.7,43.0,30.12,SE,142,0.0,1.0,58,0.00,,,0.00,meteohub,2013-02-26 02:05:00,
2013-02-25 18:10:00,57.4,43.2,30.12,West,259,1.0,2.0,59,0.00,,,0.00,meteohub,2013-02-26 02:10:00,
2013-02-25 18:16:00,56.8,43.2,30.12,WSW,248,1.0,2.0,60,0.00,,,0.00,meteohub,2013-02-26 02:16:00,
2013-02-25 18:21:00,56.7,43.3,30.12,ESE,121,1.0,2.0,61,0.00,,,0.00,meteohub,2013-02-26 02:21:00,
2013-02-25 18:26:00,56.3,43.0,30.12,NW,323,2.0,2.0,61,0.00,,,0.00,meteohub,2013-02-26 02:26:00,
2013-02-25 18:31:00,55.8,43.0,30.12,West,265,1.0,3.0,62,0.00,,,0.00,meteohub,2013-02-26 02:31:00,
2013-02-25 18:36:00,55.2,42.8,30.13,WSW,239,1.0,3.0,63,0.00,,,0.00,meteohub,2013-02-26 02:36:00,
2013-02-25 18:41:00,54.9,43.0,30.13,WNW,288,3.0,5.0,64,0.00,,,0.00,meteohub,2013-02-26 02:41:00,
2013-02-25 18:46:00,54.5,43.0,30.13,NW,319,2.0,5.0,65,0.00,,,0.00,meteohub,2013-02-26 02:46:00,
2013-02-25 18:51:00,54.1,42.6,30.14,NW,306,0.0,3.0,65,0.00,,,0.00,meteohub,2013-02-26 02:51:00,
2013-02-25 18:56:00,53.8,42.6,30.14,NW,315,1.0,3.0,66,0.00,,,0.00,meteohub,2013-02-26 02:56:00,
2013-02-25 19:01:00,53.4,42.3,30.14,West,259,1.0,2.0,66,0.00,,,0.00,meteohub,2013-02-26 03:01:00,
2013-02-25 19:06:00,53.2,42.6,30.14,WNW,302,2.0,2.0,67,0.00,,,0.00,meteohub,2013-02-26 03:06:00,
2013-02-25 19:11:00,52.7,42.4,30.14,NNE,16,1.0,2.0,68,0.00,,,0.00,meteohub,2013-02-26 03:11:00,
2013-02-25 19:16:00,52.3,42.4,30.14,NE,35,0.0,2.0,69,0.00,,,0.00,meteohub,2013-02-26 03:16:00,
2013-02-25 19:21:00,52.0,42.4,30.14,NE,35,1.0,2.0,70,0.00,,,0.00,meteohub,2013-02-26 03:21:00,
2013-02-25 19:26:00,51.8,42.3,30.14,West,280,2.0,2.0,70,0.00,,,0.00,meteohub,2013-02-26 03:26:00,
2013-02-25 19:31:00,51.1,42.1,30.14,SW,225,1.0,1.0,71,0.00,,,0.00,meteohub,2013-02-26 03:31:00,
2013-02-25 19:36:00,50.4,41.7,30.14,SSW,202,0.0,3.0,72,0.00,,,0.00,meteohub,2013-02-26 03:36:00,
2013-02-25 19:41:00,50.2,41.9,30.14,West,259,1.0,3.0,73,0.00,,,0.00,meteohub,2013-02-26 03:41:00,
2013-02-25 19:46:00,49.6,41.4,30.14,NW,319,0.0,3.0,73,0.00,,,0.00,meteohub,2013-02-26 03:46:00,
2013-02-25 19:52:00,49.5,41.5,30.14,NE,38,2.0,3.0,74,0.00,,,0.00,meteohub,2013-02-26 03:52:00,
2013-02-25 19:57:00,49.3,41.4,30.14,NE,39,1.0,3.0,74,0.00,,,0.00,meteohub,2013-02-26 03:57:00,
2013-02-25 20:02:00,49.1,41.2,30.14,SW,219,0.0,3.0,74,0.00,,,0.00,meteohub,2013-02-26 04:02:00,
2013-02-25 20:07:00,48.7,41.2,30.15,SW,219,0.0,10.0,75,0.00,,,0.00,meteohub,2013-02-26 04:07:00,
2013-02-25 20:12:00,48.6,41.4,30.15,SW,219,0.0,10.0,76,0.00,,,0.00,meteohub,2013-02-26 04:12:00,
2013-02-25 20:17:00,48.4,41.2,30.15,SSW,207,0.0,6.0,76,0.00,,,0.00,meteohub,2013-02-26 04:17:00,
2013-02-25 20:23:00,47.8,41.0,30.16,SSW,207,0.0,5.0,77,0.00,,,0.00,meteohub,2013-02-26 04:23:00,
2013-02-25 20:28:00,47.7,41.2,30.16,SSW,207,0.0,5.0,78,0.00,,,0.00,meteohub,2013-02-26 04:28:00,
2013-02-25 20:33:00,47.3,40.5,30.16,SSW,207,0.0,5.0,77,0.00,,,0.00,meteohub,2013-02-26 04:33:00,
2013-02-25 20:38:00,46.9,40.5,30.16,SSW,207,0.0,5.0,78,0.00,,,0.00,meteohub,2013-02-26 04:38:00,
2013-02-25 20:43:00,46.8,40.6,30.16,SSW,207,0.0,5.0,79,0.00,,,0.00,meteohub,2013-02-26 04:43:00,
2013-02-25 20:48:00,46.6,40.5,30.16,SSW,207,0.0,4.0,79,0.00,,,0.00,meteohub,2013-02-26 04:48:00,
2013-02-25 20:53:00,46.0,40.3,30.16,SSW,207,0.0,4.0,80,0.00,,,0.00,meteohub,2013-02-26 04:53:00,
2013-02-25 20:58:00,46.0,40.3,30.16,SSW,207,0.0,4.0,80,0.00,,,0.00,meteohub,2013-02-26 04:58:00,
2013-02-25 21:00:00,46.0,40.5,30.16,SSW,207,0.0,3.0,81,0.00,,,0.00,meteohub,2013-02-26 05:00:00,
2013-02-25 21:03:00,46.0,40.5,30.16,SSW,207,0.0,3.0,81,0.00,,,0.00,meteohub,2013-02-26 05:03:00,
2013-02-25 21:04:00,46.0,40.5,30.16,SSW,207,0.0,3.0,81,0.00,,,0.00,meteohub,2013-02-26 05:04:00,
2013-02-25 21:08:00,45.9,40.3,30.16,SSW,207,0.0,3.0,81,0.00,,,0.00,meteohub,2013-02-26 05:08:00,
2013-02-25 21:13:00,45.7,40.1,30.16,SSW,207,0.0,3.0,81,0.00,,,0.00,meteohub,2013-02-26 05:13:00,
2013-02-25 21:18:00,45.3,40.1,30.16,SSW,207,0.0,3.0,82,0.00,,,0.00,meteohub,2013-02-26 05:18:00,
2013-02-25 21:23:00,45.1,39.9,30.16,SSW,207,0.0,3.0,82,0.00,,,0.00,meteohub,2013-02-26 05:23:00,
2013-02-25 21:28:00,44.8,39.9,30.16,SSW,209,1.0,1.0,83,0.00,,,0.00,meteohub,2013-02-26 05:28:00,
2013-02-25 21:33:00,44.2,39.0,30.16,West,277,1.0,2.0,82,0.00,,,0.00,meteohub,2013-02-26 05:33:00,
2013-02-25 21:38:00,43.7,38.5,30.17,West,277,0.0,2.0,82,0.00,,,0.00,meteohub,2013-02-26 05:38:00,
2013-02-25 21:43:00,43.2,38.1,30.17,West,277,0.0,2.0,82,0.00,,,0.00,meteohub,2013-02-26 05:43:00,
2013-02-25 21:48:00,43.0,38.1,30.17,NW,326,1.0,2.0,83,0.00,,,0.00,meteohub,2013-02-26 05:48:00,
2013-02-25 21:53:00,43.2,38.3,30.17,NNW,338,0.0,3.0,83,0.00,,,0.00,meteohub,2013-02-26 05:53:00,
2013-02-25 21:58:00,43.2,38.1,30.17,NNW,338,0.0,5.0,82,0.00,,,0.00,meteohub,2013-02-26 05:58:00,
2013-02-25 22:03:00,43.0,37.9,30.17,NNW,338,0.0,5.0,82,0.00,,,0.00,meteohub,2013-02-26 06:03:00,
2013-02-25 22:09:00,42.4,37.6,30.17,NNW,337,0.0,5.0,83,0.00,,,0.00,meteohub,2013-02-26 06:09:00,
2013-02-25 22:14:00,42.4,37.6,30.17,NNW,336,1.0,3.0,83,0.00,,,0.00,meteohub,2013-02-26 06:14:00,
2013-02-25 22:19:00,42.3,37.8,30.17,NNW,338,0.0,2.0,84,0.00,,,0.00,meteohub,2013-02-26 06:19:00,
2013-02-25 22:24:00,42.3,37.8,30.16,NNW,338,0.0,2.0,84,0.00,,,0.00,meteohub,2013-02-26 06:24:00,
2013-02-25 22:29:00,42.1,37.9,30.16,NNW,338,0.0,2.0,85,0.00,,,0.00,meteohub,2013-02-26 06:29:00,
2013-02-25 22:34:00,41.7,37.6,30.16,NNW,338,0.0,2.0,85,0.00,,,0.00,meteohub,2013-02-26 06:34:00,
2013-02-25 22:39:00,41.5,37.4,30.17,NNW,338,0.0,2.0,85,0.00,,,0.00,meteohub,2013-02-26 06:39:00,
2013-02-25 22:44:00,41.5,37.6,30.17,NNW,338,0.0,2.0,86,0.00,,,0.00,meteohub,2013-02-26 06:44:00,
2013-02-25 22:49:00,41.4,37.2,30.17,NNW,338,0.0,3.0,85,0.00,,,0.00,meteohub,2013-02-26 06:49:00,
2013-02-25 22:54:00,41.2,37.4,30.17,NNW,336,1.0,3.0,86,0.00,,,0.00,meteohub,2013-02-26 06:54:00,
2013-02-25 22:59:00,41.2,37.4,30.17,South,172,1.0,3.0,86,0.00,,,0.00,meteohub,2013-02-26 06:59:00,
2013-02-25 23:04:00,40.8,37.0,30.17,South,172,0.0,3.0,86,0.00,,,0.00,meteohub,2013-02-26 07:04:00,
2013-02-25 23:09:00,40.6,37.0,30.17,South,188,1.0,3.0,87,0.00,,,0.00,meteohub,2013-02-26 07:09:00,
2013-02-25 23:14:00,40.6,37.0,30.17,NW,310,2.0,3.0,87,0.00,,,0.00,meteohub,2013-02-26 07:14:00,
2013-02-25 23:19:00,40.6,36.9,30.17,NW,310,0.0,3.0,86,0.00,,,0.00,meteohub,2013-02-26 07:19:00,
2013-02-25 23:25:00,40.3,36.5,30.17,NW,310,1.0,3.0,86,0.00,,,0.00,meteohub,2013-02-26 07:25:00,
2013-02-25 23:30:00,40.5,36.9,30.17,NW,311,1.0,3.0,87,0.00,,,0.00,meteohub,2013-02-26 07:30:00,
2013-02-25 23:35:00,40.5,36.9,30.17,NE,51,0.0,3.0,87,0.00,,,0.00,meteohub,2013-02-26 07:35:00,
2013-02-25 23:40:00,40.3,36.7,30.17,NE,51,2.0,3.0,87,0.00,,,0.00,meteohub,2013-02-26 07:40:00,
2013-02-25 23:45:00,40.1,36.5,30.17,NE,51,0.0,3.0,87,0.00,,,0.00,meteohub,2013-02-26 07:45:00,
2013-02-25 23:50:00,39.7,36.1,30.17,SSE,160,0.0,3.0,87,0.00,,,0.00,meteohub,2013-02-26 07:50:00,
2013-02-25 23:56:00,39.7,36.5,30.17,ESE,110,0.0,3.0,88,0.00,,,0.00,meteohub,2013-02-26 07:56:00,